Time;durP1;ratioP1;P1;durP2;ratioP2;P2;SDS_P1;SDS_P2;PMS_P1;PMS_P2;Temp;Humidity;BMP_temperature;BMP_pressure;BME280_temperature;BME280_humidity;BME280_pressure;Samples;Min_cycle;Max_cycle;Signal;HPM_P1;HPM_P2
2023/10/09 00:03:06;;;;;;;1.98;1.48;;;;;;;23.25;46.91;101942.28;5057187;28;20049;-71
2023/10/09 00:08:19;;;;;;;1.30;1.20;;;;;;;23.37;47.07;101962.13;5060372;28;20082;-71
2023/10/09 00:10:49;;;;;;;2.25;1.73;;;;;;;23.37;47.05;101958.66;5052405;28;20076;-71
2023/10/09 00:13:15;;;;;;;2.33;1.60;;;;;;;23.34;47.07;101943.88;5053996;28;20135;-71
2023/10/09 00:15:42;;;;;;;2.78;1.50;;;;;;;23.37;46.93;101945.38;5052344;28;20040;-71
2023/10/09 00:18:11;;;;;;;2.70;1.50;;;;;;;23.34;47.05;101933.25;5055978;28;20881;-71
2023/10/09 00:20:39;;;;;;;3.80;1.80;;;;;;;23.35;47.07;101936.75;5056184;28;20044;-71
2023/10/09 00:23:12;;;;;;;2.00;1.80;;;;;;;23.36;46.92;101938.38;5057002;28;20101;-71
2023/10/09 00:25:44;;;;;;;4.10;1.40;;;;;;;23.34;47.09;101932.41;5054116;28;20521;-71
2023/10/09 00:28:10;;;;;;;3.30;1.83;;;;;;;23.35;47.07;101920.78;5056386;28;20075;-71
2023/10/09 00:30:41;;;;;;;4.13;2.15;;;;;;;23.33;46.84;101920.94;5039125;28;20052;-70
2023/10/09 00:33:07;;;;;;;2.60;1.52;;;;;;;23.36;46.88;101922.44;5057755;28;20033;-71
2023/10/09 00:38:22;;;;;;;3.60;1.80;;;;;;;23.36;46.96;101917.13;5055600;28;20506;-70
2023/10/09 00:40:57;;;;;;;3.07;1.70;;;;;;;23.37;46.92;101921.44;5055595;28;20053;-71
2023/10/09 00:43:29;;;;;;;2.88;1.80;;;;;;;23.35;47.09;101911.00;5040859;28;20659;-71
2023/10/09 00:45:56;;;;;;;2.63;1.60;;;;;;;23.36;47.06;101903.84;5049220;28;20139;-70
2023/10/09 00:48:30;;;;;;;1.80;1.48;;;;;;;23.34;47.16;101896.03;5056819;28;20523;-70
2023/10/09 00:51:00;;;;;;;2.95;1.73;;;;;;;23.31;47.09;101882.25;5039182;28;20056;-70
2023/10/09 00:53:33;;;;;;;1.70;1.60;;;;;;;23.33;47.10;101878.41;5033173;28;20052;-71
2023/10/09 00:58:55;;;;;;;1.70;1.45;;;;;;;23.33;46.93;101865.13;5024511;28;20056;-70
2023/10/09 01:01:27;;;;;;;2.72;1.90;;;;;;;23.32;47.15;101865.31;5047949;28;20052;-70
2023/10/09 01:03:54;;;;;;;2.33;1.70;;;;;;;23.32;46.92;101871.44;5032124;28;20043;-70
2023/10/09 01:06:27;;;;;;;3.10;2.05;;;;;;;23.34;47.05;101877.44;5053508;28;20048;-71
2023/10/09 01:09:08;;;;;;;2.38;1.50;;;;;;;23.33;47.18;101872.28;5037387;28;20099;-71
2023/10/09 01:11:34;;;;;;;3.45;2.33;;;;;;;23.34;47.16;101863.28;5034729;28;20666;-70
2023/10/09 01:14:11;;;;;;;1.83;1.70;;;;;;;23.32;47.14;101865.31;5019188;28;20029;-69
2023/10/09 01:16:38;;;;;;;1.88;1.73;;;;;;;23.33;47.26;101864.31;5037819;28;20075;-70
2023/10/09 01:19:13;;;;;;;3.22;1.90;;;;;;;23.33;47.18;101859.00;5033422;28;20558;-70
2023/10/09 01:21:42;;;;;;;2.70;1.80;;;;;;;23.32;46.95;101862.66;5026550;28;20053;-70
2023/10/09 01:24:08;;;;;;;2.90;1.98;;;;;;;23.31;47.17;101858.34;5031974;28;20765;-70
2023/10/09 01:26:46;;;;;;;2.00;1.60;;;;;;;23.32;47.25;101842.22;5018701;28;20122;-70
2023/10/09 01:29:19;;;;;;;4.80;2.47;;;;;;;23.33;47.17;101843.03;5032556;28;20076;-70
2023/10/09 01:31:56;;;;;;;2.80;1.92;;;;;;;23.33;47.11;101840.38;5038699;28;20053;-70
2023/10/09 01:34:38;;;;;;;2.15;1.73;;;;;;;23.32;47.00;101846.69;5034303;28;20044;-70
2023/10/09 01:37:17;;;;;;;3.33;2.10;;;;;;;23.29;46.96;101831.94;5018870;28;20064;-70
2023/10/09 01:39:44;;;;;;;3.22;2.10;;;;;;;23.31;47.09;101829.09;5036776;28;20060;-70
2023/10/09 01:42:10;;;;;;;2.30;2.08;;;;;;;23.30;47.30;101830.13;5030624;28;20053;-70
2023/10/09 01:44:42;;;;;;;2.50;1.77;;;;;;;23.28;46.91;101817.00;5036808;28;20044;-70
2023/10/09 01:47:13;;;;;;;2.63;2.05;;;;;;;23.30;46.98;101820.31;5030492;28;20114;-69
2023/10/09 01:49:43;;;;;;;3.13;2.00;;;;;;;23.29;47.05;101818.66;5037555;28;20048;-70
2023/10/09 01:52:09;;;;;;;2.63;2.00;;;;;;;23.30;47.16;101822.97;5049629;28;20136;-70
2023/10/09 01:54:40;;;;;;;3.33;1.73;;;;;;;23.30;46.97;101822.13;5049178;28;20098;-70
2023/10/09 01:57:14;;;;;;;3.78;2.00;;;;;;;23.30;47.10;101828.28;5038556;28;20047;-70
2023/10/09 01:59:44;;;;;;;3.40;2.22;;;;;;;23.29;47.18;101816.00;5031677;28;20060;-70
2023/10/09 02:02:26;;;;;;;3.10;2.10;;;;;;;23.25;47.14;101804.09;5039959;28;20052;-70
2023/10/09 02:07:44;;;;;;;4.03;2.22;;;;;;;23.28;47.27;101795.75;5051821;28;20491;-70
2023/10/09 02:10:47;;;;;;;4.20;2.20;;;;;;;23.29;47.01;101792.09;5054048;28;20187;-70
2023/10/09 02:13:11;;;;;;;3.40;1.85;;;;;;;23.31;47.23;101794.56;5053530;28;20055;-70
2023/10/09 02:15:51;;;;;;;2.50;1.98;;;;;;;23.26;47.45;101784.47;5035520;28;20471;-70
2023/10/09 02:18:26;;;;;;;4.28;2.70;;;;;;;23.29;47.10;101794.75;4984419;28;20683;-69
2023/10/09 02:21:01;;;;;;;3.35;2.00;;;;;;;23.29;47.14;101785.94;5049458;28;20466;-69
2023/10/09 02:26:19;;;;;;;4.35;2.50;;;;;;;23.26;47.45;101776.50;5054564;28;20059;-66
2023/10/09 02:28:58;;;;;;;3.85;2.30;;;;;;;23.27;47.34;101775.50;4975354;28;20057;-66
2023/10/09 02:31:28;;;;;;;4.33;2.47;;;;;;;23.24;47.07;101769.72;5056010;28;20063;-66
2023/10/09 02:33:55;;;;;;;3.20;2.30;;;;;;;23.29;47.24;101773.47;4998774;28;20467;-66
2023/10/09 02:36:24;;;;;;;3.50;2.20;;;;;;;23.29;47.03;101765.50;5051055;28;20077;-66
2023/10/09 02:38:53;;;;;;;4.00;2.17;;;;;;;23.26;47.20;101759.72;4999233;28;20057;-66
2023/10/09 02:41:20;;;;;;;4.88;2.40;;;;;;;23.27;47.19;101754.22;5056790;28;20727;-66
2023/10/09 02:43:47;;;;;;;2.90;2.30;;;;;;;23.25;47.50;101740.31;4996360;28;20044;-66
2023/10/09 02:48:52;;;;;;;2.63;2.00;;;;;;;23.28;47.44;101747.09;4985092;28;20040;-67
2023/10/09 02:51:32;;;;;;;3.42;2.10;;;;;;;23.27;47.08;101740.94;5054599;28;20423;-66
2023/10/09 02:54:06;;;;;;;4.65;2.35;;;;;;;23.23;47.47;101728.22;4990696;28;20607;-69
2023/10/09 02:57:07;;;;;;;3.70;2.33;;;;;;;23.27;47.25;101727.66;5054399;28;20195;-70
2023/10/09 02:59:24;;;;;;;2.88;2.17;;;;;;;23.27;47.21;101713.53;5004443;28;20503;-69
2023/10/09 03:01:53;;;;;;;3.53;2.30;;;;;;;23.25;47.37;101705.75;5055491;28;20055;-69
2023/10/09 03:04:19;;;;;;;5.63;2.30;;;;;;;23.19;47.24;101693.22;5003528;28;20160;-69
2023/10/09 03:06:53;;;;;;;3.22;2.45;;;;;;;23.27;47.14;101705.56;5053271;28;20470;-69
2023/10/09 03:09:26;;;;;;;2.20;2.00;;;;;;;23.25;47.23;101707.59;5003808;28;20052;-70
2023/10/09 03:11:55;;;;;;;4.32;2.40;;;;;;;23.25;47.48;101695.13;5040804;28;21075;-65
2023/10/09 03:14:26;;;;;;;3.15;2.47;;;;;;;23.25;47.31;101686.34;5058159;28;20565;-65
2023/10/09 03:16:52;;;;;;;3.65;2.25;;;;;;;23.25;47.31;101689.00;5050481;28;20458;-65
2023/10/09 03:19:18;;;;;;;3.63;2.53;;;;;;;23.24;47.28;101696.13;4991522;28;20072;-69
2023/10/09 03:21:46;;;;;;;3.70;2.47;;;;;;;23.23;47.44;101702.47;5043353;28;20478;-69
2023/10/09 03:24:15;;;;;;;5.13;2.67;;;;;;;23.24;47.58;101708.59;5015252;28;20720;-70
2023/10/09 03:26:44;;;;;;;3.28;2.50;;;;;;;23.24;47.56;101700.63;5041022;28;20049;-70
2023/10/09 03:29:10;;;;;;;3.77;2.33;;;;;;;23.18;47.46;101695.03;4986547;28;20525;-70
2023/10/09 03:31:36;;;;;;;4.65;2.40;;;;;;;23.24;47.47;101705.94;5059081;28;20048;-70
2023/10/09 03:34:06;;;;;;;4.35;2.55;;;;;;;23.25;47.46;101705.75;5008032;28;20045;-70
2023/10/09 03:36:37;;;;;;;2.95;2.10;;;;;;;23.24;47.32;101705.94;5054094;28;20052;-70
2023/10/09 03:39:07;;;;;;;4.75;2.67;;;;;;;23.23;47.34;101702.47;4999819;28;20084;-70
2023/10/09 03:41:40;;;;;;;3.92;2.35;;;;;;;23.23;47.35;101702.47;5055803;28;20573;-70
2023/10/09 03:44:10;;;;;;;4.68;2.50;;;;;;;23.24;47.41;101703.28;5012645;28;20049;-67
2023/10/09 03:46:36;;;;;;;3.67;2.45;;;;;;;23.25;47.58;101704.94;5059632;28;20167;-67
2023/10/09 03:49:04;;;;;;;4.20;2.58;;;;;;;23.24;47.59;101712.09;4989644;28;20052;-68
2023/10/09 03:51:30;;;;;;;4.50;2.35;;;;;;;23.23;47.27;101710.44;5052794;28;20048;-67
2023/10/09 03:53:55;;;;;;;2.67;2.25;;;;;;;23.24;47.52;101716.56;5005912;28;20056;-67
2023/10/09 03:56:21;;;;;;;4.43;2.60;;;;;;;23.17;47.51;101704.03;5054703;28;20053;-67
2023/10/09 03:58:49;;;;;;;4.32;2.60;;;;;;;23.23;47.44;101717.56;5002347;28;20402;-67
2023/10/09 04:01:28;;;;;;;4.30;2.55;;;;;;;23.21;47.66;101704.47;5050476;28;20143;-67
2023/10/09 04:04:01;;;;;;;3.53;2.50;;;;;;;23.21;47.43;101707.97;5003674;28;20135;-67
2023/10/09 04:06:30;;;;;;;4.15;2.67;;;;;;;23.21;47.50;101707.97;5051619;28;20045;-67
2023/10/09 04:08:58;;;;;;;4.53;2.67;;;;;;;23.22;47.58;101711.44;5004787;28;20056;-65
2023/10/09 04:11:24;;;;;;;3.65;2.63;;;;;;;23.21;47.42;101701.81;5048759;28;20554;-65
2023/10/09 04:13:51;;;;;;;3.92;2.42;;;;;;;23.21;47.74;101715.94;5002633;28;20036;-65
2023/10/09 04:18:52;;;;;;;4.47;2.40;;;;;;;23.21;47.71;101723.06;5055662;28;20087;-67
2023/10/09 04:21:34;;;;;;;4.32;3.00;;;;;;;23.21;47.55;101728.38;5002503;28;20060;-67
2023/10/09 04:26:39;;;;;;;5.25;3.05;;;;;;;23.21;47.58;101717.75;5003492;28;20433;-65
2023/10/09 04:29:06;;;;;;;4.07;2.53;;;;;;;23.20;47.30;101724.09;5054584;28;20174;-66
2023/10/09 04:31:32;;;;;;;3.72;2.65;;;;;;;23.21;47.53;101720.41;4999693;28;20049;-65
2023/10/09 04:37:00;;;;;;;4.03;2.53;;;;;;;23.15;47.58;101700.69;5013572;28;20060;-66
2023/10/09 04:45:19;;;;;;;3.60;2.80;;;;;;;23.20;47.44;101700.16;5005829;28;24883;-66
2023/10/09 04:47:35;;;;;;;4.15;2.50;;;;;;;23.14;47.75;101695.56;5057706;28;20134;-67
2023/10/09 04:50:36;;;;;;;5.57;2.90;;;;;;;23.21;47.74;101707.13;5005898;28;20050;-65
2023/10/09 04:55:57;;;;;;;4.47;2.63;;;;;;;23.18;47.80;101704.84;5001746;28;20061;-65
2023/10/09 04:58:26;;;;;;;4.53;3.00;;;;;;;23.11;47.84;101685.28;5053810;28;20057;-66
2023/10/09 05:03:28;;;;;;;4.00;2.70;;;;;;;23.17;47.56;101701.38;5053638;28;20530;-65
2023/10/09 05:05:59;;;;;;;4.80;2.97;;;;;;;23.16;47.93;101696.19;4999247;28;20052;-65
2023/10/09 05:16:28;;;;;;;3.70;2.65;;;;;;;23.16;47.66;101705.03;5006545;28;20036;-65
2023/10/09 05:18:56;;;;;;;3.28;2.33;;;;;;;23.16;47.85;101704.16;5058243;28;20414;-65
2023/10/09 05:21:48;;;;;;;4.53;2.75;;;;;;;23.17;47.91;101695.22;4995955;28;20049;-65
2023/10/09 05:37:32;;;;;;;5.00;2.65;;;;;;;23.17;48.02;101714.66;5047705;28;20067;-66
2023/10/09 05:47:54;;;;;;;4.45;2.90;;;;;;;23.18;47.93;101755.31;5056634;28;20130;-67
2023/10/09 06:06:32;;;;;;;3.83;2.60;;;;;;;23.14;47.98;101746.03;5029183;28;20052;-70
2023/10/09 06:11:55;;;;;;;4.50;2.90;;;;;;;23.18;47.95;101740.22;5055333;28;20557;-70
2023/10/09 06:24:18;;;;;;;4.97;2.60;;;;;;;23.16;47.83;101726.28;5001572;28;20486;-65
2023/10/09 06:29:35;;;;;;;4.45;2.60;;;;;;;23.15;48.06;101735.22;5000849;28;20419;-65
2023/10/09 06:43:09;;;;;;;7.22;2.60;;;;;;;23.03;47.95;101711.94;4981047;28;20683;-69
2023/10/09 06:45:43;;;;;;;5.47;2.58;;;;;;;23.12;48.07;101732.13;5059888;28;20426;-70
2023/10/09 06:58:55;;;;;;;3.38;2.65;;;;;;;23.12;47.92;101732.13;4987268;28;20806;-70
2023/10/09 07:01:42;;;;;;;3.25;2.72;;;;;;;23.15;47.80;101745.03;5031085;28;20056;-69
2023/10/09 07:07:13;;;;;;;4.30;2.97;;;;;;;23.13;47.66;101742.56;5027300;28;20403;-68
2023/10/09 07:12:27;;;;;;;4.05;3.13;;;;;;;23.08;48.22;101720.19;5016172;28;20095;-68
2023/10/09 07:22:55;;;;;;;3.95;2.92;;;;;;;23.08;48.37;101718.38;4980674;28;20151;-70
2023/10/09 07:25:40;;;;;;;4.32;3.03;;;;;;;23.09;48.13;101721.84;5040691;28;20057;-69
2023/10/09 07:28:18;;;;;;;4.00;2.45;;;;;;;23.10;48.14;101723.50;4984589;28;20041;-69
2023/10/09 07:30:46;;;;;;;4.28;2.53;;;;;;;23.10;47.89;101732.28;5032447;28;20091;-69
2023/10/09 07:38:35;;;;;;;4.97;2.92;;;;;;;23.01;48.50;101744.00;5038563;28;20055;-71
2023/10/09 07:46:51;;;;;;;3.85;2.42;;;;;;;23.17;48.29;101740.41;5041156;28;20041;-67
2023/10/09 07:49:25;;;;;;;5.07;2.92;;;;;;;23.31;47.99;101744.88;5042120;28;20056;-68
2023/10/09 07:51:52;;;;;;;3.47;2.70;;;;;;;23.21;48.43;101744.34;5020984;28;20053;-67
2023/10/09 07:54:32;;;;;;;4.18;2.85;;;;;;;23.23;48.43;101752.94;5036513;28;20037;-67
2023/10/09 07:57:16;;;;;;;6.32;3.08;;;;;;;23.20;48.23;101756.78;5014114;28;20048;-67
2023/10/09 07:59:54;;;;;;;3.88;2.90;;;;;;;23.22;48.25;101775.22;4988478;28;20049;-67
2023/10/09 08:02:31;;;;;;;3.83;2.60;;;;;;;23.25;48.21;101782.00;5041348;28;20485;-67
2023/10/09 08:05:04;;;;;;;4.25;2.65;;;;;;;23.23;48.35;101773.38;4987798;28;20059;-67
2023/10/09 08:07:37;;;;;;;5.00;2.92;;;;;;;23.21;48.22;101782.34;5039397;28;20041;-66
2023/10/09 08:12:57;;;;;;;4.65;2.70;;;;;;;23.10;48.48;101779.28;5035547;28;20530;-67
2023/10/09 08:15:51;;;;;;;4.05;2.85;;;;;;;23.21;48.22;101786.84;5007639;28;20056;-67
2023/10/09 08:18:27;;;;;;;7.65;3.47;;;;;;;23.21;48.17;101787.69;4992127;28;20715;-67
2023/10/09 08:23:28;;;;;;;4.65;3.00;;;;;;;23.24;48.00;101794.47;4985782;28;20508;-67
2023/10/09 08:26:13;;;;;;;2.83;2.47;;;;;;;23.26;48.09;101791.63;5038919;28;20058;-67
2023/10/09 08:28:43;;;;;;;5.65;3.33;;;;;;;23.26;48.00;101795.09;4987312;28;20064;-67
2023/10/09 08:31:19;;;;;;;;;;;;;;;23.27;47.93;101798.59;5038842;28;20524;-67
2023/10/09 08:34:09;;;;;;;5.03;3.13;;;;;;;23.27;47.99;101802.06;4974962;28;19999;-67
2023/10/09 08:36:38;;;;;;;4.85;3.05;;;;;;;23.29;47.99;101801.88;5035941;28;20057;-67
2023/10/09 08:39:25;;;;;;;4.28;2.50;;;;;;;23.31;47.94;101808.66;4988389;28;20144;-67
2023/10/09 08:41:57;;;;;;;4.70;2.75;;;;;;;23.29;48.15;101808.03;5035003;28;21003;-67
2023/10/09 08:44:26;;;;;;;4.13;2.50;;;;;;;23.30;47.72;101815.00;4989657;28;20045;-67
2023/10/09 08:46:54;;;;;;;3.83;2.60;;;;;;;23.29;47.80;101821.31;5036984;28;20041;-68
2023/10/09 08:49:21;;;;;;;4.75;2.65;;;;;;;23.31;47.77;101816.66;4981036;28;20112;-68
2023/10/09 08:51:48;;;;;;;4.25;2.75;;;;;;;23.31;47.97;101819.31;5037537;28;21398;-67
2023/10/09 08:54:14;;;;;;;4.30;2.60;;;;;;;23.31;47.99;101805.19;5054287;28;20060;-67
2023/10/09 08:56:49;;;;;;;5.82;2.72;;;;;;;23.31;47.85;101810.50;5051825;28;20059;-67
2023/10/09 08:59:20;;;;;;;3.67;2.67;;;;;;;23.33;47.73;101800.50;5012546;28;20036;-67
2023/10/09 09:01:59;;;;;;;4.97;3.05;;;;;;;23.15;47.74;101769.78;5057478;28;21229;-67
2023/10/09 09:04:40;;;;;;;4.05;2.80;;;;;;;23.34;47.91;101799.50;5045065;28;20049;-67
2023/10/09 09:07:07;;;;;;;;;;;;;;;23.29;47.92;101793.91;5023865;28;20110;-69
2023/10/09 09:09:34;;;;;;;4.05;2.80;;;;;;;23.37;47.87;101807.16;5051985;28;19947;-66
2023/10/09 09:12:01;;;;;;;5.15;2.70;;;;;;;23.33;47.79;101808.50;5029733;28;20056;-66
2023/10/09 09:14:38;;;;;;;3.88;2.97;;;;;;;23.34;47.95;101808.34;5044724;28;20056;-67
2023/10/09 09:17:10;;;;;;;5.85;3.17;;;;;;;23.29;48.24;101801.88;5025891;28;20060;-66
2023/10/09 09:19:37;;;;;;;4.82;2.70;;;;;;;23.34;48.00;101811.00;5059090;28;20032;-67
2023/10/09 09:22:12;;;;;;;6.07;2.70;;;;;;;23.35;47.97;101811.81;5021540;28;20060;-67
2023/10/09 09:24:38;;;;;;;4.65;2.97;;;;;;;23.33;48.13;101811.16;5048516;28;20481;-66
2023/10/09 09:29:52;;;;;;;4.78;2.83;;;;;;;23.36;47.78;101826.75;5058360;28;20063;-67
2023/10/09 09:32:35;;;;;;;7.22;3.10;;;;;;;23.36;47.89;101822.28;5006823;28;20864;-67
2023/10/09 09:35:02;;;;;;;4.43;2.63;;;;;;;23.35;48.04;101825.94;5055370;28;20371;-67
2023/10/09 09:37:28;;;;;;;5.15;2.80;;;;;;;23.36;47.88;101821.44;4998935;28;20087;-66
2023/10/09 09:40:14;;;;;;;3.92;2.50;;;;;;;23.37;48.13;101826.56;5055262;28;20052;-67
2023/10/09 09:42:44;;;;;;;4.20;2.70;;;;;;;23.37;47.95;101828.41;5008022;28;20053;-65
2023/10/09 09:45:11;;;;;;;4.22;2.72;;;;;;;23.36;48.03;101824.94;5054282;28;20106;-67
2023/10/09 09:47:37;;;;;;;5.10;2.78;;;;;;;23.37;47.92;101826.56;5004009;28;20083;-67
2023/10/09 09:50:12;;;;;;;4.63;3.00;;;;;;;23.34;48.03;101823.44;5049138;28;20686;-67
2023/10/09 09:52:38;;;;;;;3.90;2.60;;;;;;;23.37;47.97;101821.25;4988400;28;20056;-67
2023/10/09 09:55:07;;;;;;;4.88;3.22;;;;;;;23.38;47.86;101811.47;5019468;28;20037;-67
2023/10/09 09:57:39;;;;;;;3.77;2.80;;;;;;;23.38;48.11;101827.41;5037689;28;20075;-67
2023/10/09 10:00:17;;;;;;;5.05;2.75;;;;;;;23.38;47.94;101827.41;4991666;28;20507;-67
2023/10/09 10:02:45;;;;;;;4.90;2.70;;;;;;;23.38;48.07;101827.41;5035411;28;20041;-67
2023/10/09 10:05:15;;;;;;;5.47;3.25;;;;;;;23.40;47.89;101828.88;4985553;28;20053;-67
2023/10/09 10:07:43;;;;;;;3.80;2.65;;;;;;;23.39;48.12;101835.19;5040560;28;20056;-67
2023/10/09 10:10:53;;;;;;;4.63;2.97;;;;;;;23.40;47.92;101844.00;4983918;28;20057;-66
2023/10/09 10:13:40;;;;;;;4.13;3.00;;;;;;;23.40;48.26;101834.19;5026174;28;20059;-67
2023/10/09 10:16:19;;;;;;;5.15;3.05;;;;;;;23.41;48.20;101843.00;5002647;28;20600;-67
2023/10/09 10:18:59;;;;;;;5.10;2.67;;;;;;;23.41;47.94;101833.19;5046697;28;20061;-67
2023/10/09 10:24:09;;;;;;;4.47;2.80;;;;;;;23.39;48.01;101831.72;5034008;28;19940;-67
2023/10/09 10:26:35;;;;;;;5.38;3.15;;;;;;;23.40;48.19;101834.19;4984572;28;20084;-67
2023/10/09 10:29:32;;;;;;;4.68;2.97;;;;;;;23.41;48.12;101835.84;5036921;28;20045;-67
2023/10/09 10:32:11;;;;;;;4.20;3.00;;;;;;;23.42;48.00;101841.97;5033926;28;20057;-66
2023/10/09 10:34:55;;;;;;;5.05;2.88;;;;;;;23.40;48.20;101833.38;5002855;28;20037;-69
2023/10/09 10:37:50;;;;;;;3.50;2.50;;;;;;;23.39;48.05;101834.38;5039045;28;20554;-67
2023/10/09 10:40:38;;;;;;;4.22;2.95;;;;;;;23.42;48.07;101842.81;4984035;28;20174;-67
2023/10/09 10:43:13;;;;;;;5.05;2.60;;;;;;;23.41;48.06;101845.66;5038126;28;20137;-67
2023/10/09 10:45:45;;;;;;;3.63;2.40;;;;;;;23.40;47.93;101846.66;4977354;28;20049;-64
2023/10/09 10:48:37;;;;;;;4.18;2.40;;;;;;;23.40;48.04;101852.78;5039392;28;20122;-64
2023/10/09 10:51:04;;;;;;;4.32;3.00;;;;;;;23.42;48.17;101845.47;4985603;28;20049;-64
2023/10/09 10:53:39;;;;;;;4.50;2.50;;;;;;;23.42;48.27;101856.09;5026731;28;20060;-65
2023/10/09 10:58:47;;;;;;;3.53;2.67;;;;;;;23.41;48.06;101867.75;5038331;28;20400;-67
2023/10/09 11:01:15;;;;;;;6.45;2.75;;;;;;;23.41;48.05;101867.75;4984740;28;20061;-64
2023/10/09 11:06:37;;;;;;;5.20;2.80;;;;;;;23.42;48.10;101861.41;5026237;28;20055;-67
2023/10/09 11:09:23;;;;;;;3.53;2.85;;;;;;;23.43;48.25;101879.00;4987980;28;21463;-66
2023/10/09 11:12:11;;;;;;;3.53;2.20;;;;;;;23.41;48.38;101880.19;5045254;28;20055;-67
2023/10/09 11:14:46;;;;;;;4.78;2.53;;;;;;;23.43;48.33;101880.84;4993852;28;20079;-66
2023/10/09 11:17:25;;;;;;;3.60;2.47;;;;;;;23.44;48.10;101885.97;5033990;28;20143;-66
2023/10/09 11:19:52;;;;;;;4.53;2.60;;;;;;;23.42;48.09;101884.50;4983040;28;20049;-66
2023/10/09 11:22:36;;;;;;;4.15;2.40;;;;;;;23.43;48.33;101878.19;5033567;28;20891;-67
2023/10/09 11:25:11;;;;;;;3.63;2.30;;;;;;;23.43;48.20;101884.34;4982690;28;20877;-66
2023/10/09 11:27:39;;;;;;;3.55;2.53;;;;;;;23.40;48.00;101875.91;5036309;28;20553;-67
2023/10/09 11:30:09;;;;;;;4.15;2.60;;;;;;;23.42;48.25;101888.00;4990289;28;20045;-68
2023/10/09 11:32:37;;;;;;;4.45;2.83;;;;;;;23.33;48.18;101870.44;5043014;28;20125;-69
2023/10/09 11:35:27;;;;;;;4.85;2.72;;;;;;;23.44;48.32;101879.84;4991294;28;20064;-65
2023/10/09 11:37:58;;;;;;;;;;;;;;;23.43;48.18;101881.66;5032631;28;20381;-64
2023/10/09 11:40:33;;;;;;;5.32;2.70;;;;;;;23.43;48.06;101886.16;4992700;28;19925;-69
2023/10/09 11:43:03;;;;;;;3.97;2.80;;;;;;;23.44;48.24;101883.31;5044358;28;20052;-66
2023/10/09 11:45:29;;;;;;;4.20;2.72;;;;;;;23.44;48.29;101880.66;4987064;28;20053;-67
2023/10/09 11:48:00;;;;;;;4.68;2.70;;;;;;;23.48;48.28;101881.13;5046743;28;20040;-66
2023/10/09 11:50:52;;;;;;;5.00;2.85;;;;;;;23.45;48.20;101877.00;4999432;28;20052;-66
2023/10/09 11:55:52;;;;;;;5.57;2.85;;;;;;;23.45;48.31;101869.03;5007446;28;20058;-67
2023/10/09 11:58:22;;;;;;;3.13;2.08;;;;;;;23.42;48.13;101872.06;5060088;28;20048;-66
2023/10/09 12:01:04;;;;;;;3.85;2.50;;;;;;;23.48;48.26;101871.31;5006189;28;20495;-66
2023/10/09 12:03:33;;;;;;;4.18;2.70;;;;;;;23.49;48.15;101872.16;5041558;28;20085;-66
2023/10/09 12:06:11;;;;;;;3.33;2.50;;;;;;;23.50;48.22;101871.97;5030832;28;20041;-67
2023/10/09 12:08:40;;;;;;;4.03;2.63;;;;;;;23.49;48.14;101872.16;5045496;28;20047;-67
2023/10/09 12:11:09;;;;;;;3.95;2.38;;;;;;;23.50;48.25;101869.31;5029599;28;20047;-66
2023/10/09 12:13:38;;;;;;;4.40;2.58;;;;;;;23.48;48.21;101858.03;5037409;28;20040;-67
2023/10/09 12:16:08;;;;;;;3.05;2.17;;;;;;;23.48;48.26;101860.69;5055837;28;20098;-66
2023/10/09 12:18:34;;;;;;;2.83;2.40;;;;;;;23.47;48.23;101861.69;5009960;28;20044;-64
2023/10/09 12:21:04;;;;;;;5.13;2.50;;;;;;;23.49;48.26;101853.53;5059631;28;20127;-63
2023/10/09 12:23:35;;;;;;;3.47;2.40;;;;;;;23.49;48.21;101856.19;5003962;28;20057;-64
2023/10/09 12:26:02;;;;;;;10.30;8.40;;;;;;;23.59;48.84;101848.84;5054176;28;20059;-66
2023/10/09 12:28:28;;;;;;;20.80;18.98;;;;;;;23.57;48.96;101847.38;5008328;28;20037;-63
2023/10/09 12:30:54;;;;;;;21.38;19.35;;;;;;;23.56;48.78;101851.84;5060848;28;20097;-62
2023/10/09 12:33:27;;;;;;;40.55;37.03;;;;;;;23.59;48.74;101861.31;5004138;28;20471;-65
2023/10/09 12:35:59;;;;;;;8.88;7.03;;;;;;;23.60;48.65;101858.47;5059169;28;20478;-65
2023/10/09 12:38:32;;;;;;;8.70;6.00;;;;;;;23.61;48.67;101856.63;5004619;28;20506;-65
2023/10/09 12:41:28;;;;;;;7.93;5.60;;;;;;;23.62;48.34;101853.78;5057455;28;20598;-65
2023/10/09 12:44:00;;;;;;;7.75;5.28;;;;;;;23.62;48.33;101853.78;4999628;28;20048;-65
2023/10/09 12:46:25;;;;;;;5.75;4.18;;;;;;;23.62;48.33;101851.13;5056482;28;20063;-65
2023/10/09 12:48:54;;;;;;;6.50;4.88;;;;;;;23.60;48.44;101844.34;5008761;28;20052;-65
2023/10/09 12:51:25;;;;;;;5.45;4.35;;;;;;;23.64;48.59;101853.63;5051603;28;20829;-65
2023/10/09 12:53:57;;;;;;;5.32;4.00;;;;;;;23.62;48.54;101851.13;5006637;28;20569;-63
2023/10/09 12:56:33;;;;;;;7.38;4.15;;;;;;;23.63;48.45;101850.13;5056621;28;20049;-63
2023/10/09 12:59:04;;;;;;;5.82;4.35;;;;;;;23.66;48.33;101846.28;5007277;28;20060;-65
2023/10/09 13:01:42;;;;;;;5.30;3.92;;;;;;;23.59;48.51;101843.53;5050990;28;20061;-65
2023/10/09 13:04:11;;;;;;;5.22;3.53;;;;;;;23.65;48.41;101850.78;5004835;28;20119;-65
2023/10/09 13:06:43;;;;;;;5.40;3.67;;;;;;;23.64;48.41;101838.47;5053502;28;20587;-65
2023/10/09 13:09:14;;;;;;;4.47;3.50;;;;;;;23.60;48.57;101839.84;5002908;28;20827;-63
2023/10/09 13:11:40;;;;;;;5.65;3.70;;;;;;;23.64;48.64;101843.81;5057453;28;20445;-63
2023/10/09 13:14:16;;;;;;;5.05;3.33;;;;;;;23.67;48.53;101853.25;4994736;28;20723;-65
2023/10/09 13:16:43;;;;;;;6.10;4.10;;;;;;;23.63;48.57;101847.47;5043952;28;20056;-65
2023/10/09 13:19:11;;;;;;;4.28;3.45;;;;;;;23.67;48.57;101856.72;5057255;28;20057;-65
2023/10/09 13:21:42;;;;;;;5.50;3.47;;;;;;;23.65;48.49;101856.09;5001565;28;20612;-64
2023/10/09 13:24:15;;;;;;;5.05;3.83;;;;;;;23.65;48.48;101855.25;5053089;28;20087;-64
2023/10/09 13:26:51;;;;;;;5.22;3.88;;;;;;;23.69;48.26;101862.69;5007322;28;20063;-64
2023/10/09 13:29:22;;;;;;;4.75;3.30;;;;;;;23.69;48.46;101859.22;5056891;28;20056;-65
2023/10/09 13:31:49;;;;;;;4.18;3.25;;;;;;;23.70;48.41;101860.88;5005927;28;20064;-63
2023/10/09 13:34:17;;;;;;;3.75;3.10;;;;;;;23.70;48.47;101860.88;5057341;28;20044;-63
2023/10/09 13:36:52;;;;;;;4.45;3.10;;;;;;;23.70;48.50;101864.38;5005165;28;20053;-65
2023/10/09 13:39:25;;;;;;;4.97;3.25;;;;;;;23.70;48.34;101874.19;5055015;28;20139;-65
2023/10/09 13:41:57;;;;;;;4.40;2.90;;;;;;;23.70;48.30;101860.88;5000088;28;20041;-64
2023/10/09 13:44:33;;;;;;;3.58;2.80;;;;;;;23.70;48.45;101869.69;5059259;28;20052;-64
2023/10/09 13:47:02;;;;;;;4.55;2.75;;;;;;;23.69;48.47;101873.34;5005380;28;20080;-65
2023/10/09 13:49:31;;;;;;;3.88;2.67;;;;;;;23.69;48.36;101875.16;5056230;28;20489;-65
2023/10/09 13:52:01;;;;;;;3.63;2.57;;;;;;;23.70;48.33;101876.84;4988094;28;20446;-64
2023/10/09 13:57:00;;;;;;;3.15;2.85;;;;;;;23.72;48.36;101886.28;4989504;28;20049;-65
2023/10/09 13:59:25;;;;;;;3.60;2.42;;;;;;;23.71;48.40;101889.13;5037653;28;20033;-65
2023/10/09 14:01:56;;;;;;;4.43;2.88;;;;;;;23.70;48.62;101879.50;4986026;28;20420;-64
2023/10/09 14:04:23;;;;;;;5.22;2.60;;;;;;;23.71;48.45;101883.81;5032922;28;20052;-65
2023/10/09 14:06:51;;;;;;;3.33;2.60;;;;;;;23.68;48.47;101881.50;4993288;28;20454;-64
2023/10/09 14:09:37;;;;;;;2.50;2.10;;;;;;;23.70;48.51;101882.16;5040486;28;20102;-64
2023/10/09 14:12:07;;;;;;;2.85;2.47;;;;;;;23.65;48.49;101877.38;4984937;28;20056;-64
2023/10/09 14:14:34;;;;;;;;;;;;;;;23.72;48.38;101888.13;5035362;28;20040;-65
2023/10/09 14:16:59;;;;;;;3.40;2.60;;;;;;;23.71;48.32;101881.16;4982632;28;19929;-63
2023/10/09 14:19:25;;;;;;;3.50;2.30;;;;;;;23.70;48.57;101888.31;5033248;28;20056;-63
2023/10/09 14:21:51;;;;;;;2.97;2.30;;;;;;;23.65;48.43;101881.84;4985387;28;20826;-65
2023/10/09 14:24:17;;;;;;;3.40;2.80;;;;;;;23.67;48.42;101880.66;5034201;28;20048;-65
2023/10/09 14:26:46;;;;;;;2.47;2.15;;;;;;;23.67;48.56;101882.50;5019786;28;20044;-66
2023/10/09 14:29:16;;;;;;;3.23;2.53;;;;;;;23.61;48.57;101886.72;5030314;28;20514;-65
2023/10/09 14:31:59;;;;;;;3.72;2.30;;;;;;;23.66;48.70;101892.31;4982310;28;20529;-65
2023/10/09 14:34:32;;;;;;;3.22;2.58;;;;;;;23.65;48.73;101884.50;5021773;28;20052;-67
2023/10/09 14:37:00;;;;;;;4.80;2.15;;;;;;;23.63;48.71;101883.88;4984067;28;20564;-67